createdAt,value
2019-04-10T00:01:12.530Z,6.22
2019-04-10T00:03:43.683Z,5.72
2019-04-10T00:06:15.105Z,6.28
2019-04-10T00:08:42.883Z,6.78
2019-04-10T00:11:12.186Z,5.87
2019-04-10T00:13:42.788Z,7.00
2019-04-10T00:16:11.921Z,6.80
2019-04-10T00:18:40.678Z,6.80
2019-04-10T00:21:11.188Z,5.67
2019-04-10T00:23:40.310Z,6.00
2019-04-10T00:26:09.944Z,6.62
2019-04-10T00:28:39.338Z,7.87
2019-04-10T00:31:09.465Z,7.10
2019-04-10T00:33:38.543Z,6.08
2019-04-10T00:36:07.931Z,6.30
2019-04-10T00:38:37.943Z,7.15
2019-04-10T00:41:07.996Z,6.75
2019-04-10T00:43:37.403Z,6.65
2019-04-10T00:46:06.391Z,7.03
2019-04-10T00:48:36.250Z,6.60
2019-04-10T00:51:05.475Z,6.45
2019-04-10T00:53:34.925Z,5.87
2019-04-10T00:56:04.537Z,6.58
2019-04-10T00:58:33.856Z,6.53
2019-04-10T01:01:03.420Z,6.40
2019-04-10T01:03:46.668Z,5.70
2019-04-10T01:06:15.844Z,6.83
2019-04-10T01:08:45.243Z,6.35
2019-04-10T01:11:15.465Z,6.08
2019-04-10T01:13:45.394Z,5.72
2019-04-10T01:16:16.209Z,7.25
2019-04-10T01:18:45.704Z,5.47
2019-04-10T01:21:14.928Z,6.00
2019-04-10T01:23:44.798Z,5.78
2019-04-10T01:26:14.936Z,5.92
2019-04-10T01:28:44.944Z,4.85
2019-04-10T01:31:14.970Z,4.80
2019-04-10T01:33:45.919Z,5.60
2019-04-10T01:36:15.096Z,5.87
2019-04-10T01:38:44.165Z,6.03
2019-04-10T01:41:13.403Z,6.20
2019-04-10T01:43:43.328Z,5.12
2019-04-10T01:46:13.762Z,4.87
2019-04-10T01:48:43.758Z,5.28
2019-04-10T01:51:13.083Z,5.58
2019-04-10T01:53:42.383Z,4.87
2019-04-10T01:56:22.812Z,4.80
2019-04-10T01:58:43.543Z,4.35
2019-04-10T02:01:26.463Z,5.50
2019-04-10T02:03:55.426Z,5.10
2019-04-10T02:06:25.299Z,4.97
2019-04-10T02:08:56.342Z,4.40
2019-04-10T02:11:25.978Z,3.83
2019-04-10T02:13:56.677Z,4.90
2019-04-10T02:16:25.823Z,4.37
2019-04-10T02:18:54.711Z,4.78
2019-04-10T02:21:23.925Z,4.75
2019-04-10T02:23:54.514Z,5.20
2019-04-10T02:26:23.532Z,4.55
2019-04-10T02:28:53.387Z,4.80
2019-04-10T02:31:24.144Z,4.30
2019-04-10T02:33:53.728Z,4.25
2019-04-10T02:36:23.508Z,4.37
2019-04-10T02:39:06.919Z,4.25
2019-04-10T02:41:23.444Z,4.00
2019-04-10T02:43:53.741Z,4.47
2019-04-10T02:46:24.984Z,4.00
2019-04-10T02:48:54.411Z,3.58
2019-04-10T02:51:25.566Z,3.77
2019-04-10T02:53:56.100Z,3.37
2019-04-10T02:56:25.584Z,4.12
2019-04-10T02:58:56.514Z,4.00
2019-04-10T03:01:25.332Z,3.58
2019-04-10T03:03:55.557Z,3.83
2019-04-10T03:06:25.064Z,4.03
2019-04-10T03:09:07.556Z,3.50
2019-04-10T03:11:26.501Z,3.65
2019-04-10T03:13:55.680Z,3.67
2019-04-10T03:16:25.240Z,2.92
2019-04-10T03:18:54.906Z,3.30
2019-04-10T03:21:23.977Z,2.98
2019-04-10T03:23:53.806Z,3.65
2019-04-10T03:26:23.760Z,2.98
2019-04-10T03:28:53.753Z,3.62
2019-04-10T03:31:24.709Z,3.22
2019-04-10T03:34:06.190Z,3.15
2019-04-10T03:36:40.052Z,3.30
2019-04-10T03:39:10.597Z,3.58
2019-04-10T03:41:40.142Z,3.30
2019-04-10T03:44:10.309Z,3.17
2019-04-10T03:46:40.144Z,3.55
2019-04-10T03:49:09.646Z,3.10
2019-04-10T03:51:38.983Z,3.62
2019-04-10T03:54:08.942Z,3.85
2019-04-10T03:56:38.253Z,2.85
2019-04-10T03:59:08.386Z,3.10
2019-04-10T04:01:38.828Z,3.55
2019-04-10T04:04:09.014Z,3.22
2019-04-10T04:06:40.226Z,3.00
2019-04-10T04:09:11.609Z,3.27
2019-04-10T04:11:40.016Z,3.17
2019-04-10T04:14:10.236Z,3.33
2019-04-10T04:16:39.410Z,3.35
2019-04-10T04:19:10.139Z,3.50
2019-04-10T04:21:39.667Z,2.83
2019-04-10T04:24:09.372Z,2.75
2019-04-10T04:26:39.303Z,2.58
2019-04-10T04:29:09.648Z,2.83
2019-04-10T04:31:40.023Z,2.40
2019-04-10T04:34:10.031Z,2.85
2019-04-10T04:36:39.383Z,3.37
2019-04-10T04:39:19.847Z,3.00
2019-04-10T04:41:40.063Z,3.05
2019-04-10T04:44:10.151Z,2.60
2019-04-10T04:46:39.339Z,2.75
2019-04-10T04:49:08.240Z,3.40
2019-04-10T04:51:37.327Z,2.67
2019-04-10T04:54:06.703Z,3.08
2019-04-10T04:56:36.035Z,3.20
2019-04-10T04:59:05.327Z,3.00
2019-04-10T05:01:34.406Z,2.87
2019-04-10T05:04:03.492Z,3.20
2019-04-10T05:06:32.936Z,3.25
2019-04-10T05:09:02.782Z,3.60
2019-04-10T05:11:31.927Z,2.85
2019-04-10T05:14:01.132Z,4.55
2019-04-10T05:16:30.959Z,3.70
2019-04-10T05:19:00.249Z,3.45
2019-04-10T05:21:29.495Z,3.77
2019-04-10T05:23:59.582Z,2.70
2019-04-10T05:26:28.852Z,2.20
2019-04-10T05:28:58.052Z,2.80
2019-04-10T05:31:27.978Z,2.92
2019-04-10T05:33:57.449Z,2.98
2019-04-10T05:36:26.773Z,2.40
2019-04-10T05:38:55.773Z,3.17
2019-04-10T05:41:24.643Z,2.83
2019-04-10T05:43:53.850Z,2.83
2019-04-10T05:46:23.096Z,2.80
2019-04-10T05:48:52.566Z,2.85
2019-04-10T05:51:21.873Z,2.83
2019-04-10T05:53:52.828Z,3.37
2019-04-10T05:56:22.425Z,2.52
2019-04-10T05:58:51.599Z,2.55
2019-04-10T06:01:30.537Z,2.70
2019-04-10T06:03:52.481Z,3.47
2019-04-10T06:06:22.213Z,2.83
2019-04-10T06:08:51.347Z,2.85
2019-04-10T06:11:20.609Z,3.15
2019-04-10T06:13:50.637Z,3.08
2019-04-10T06:16:19.687Z,2.52
2019-04-10T06:18:48.448Z,3.17
2019-04-10T06:21:18.772Z,3.27
2019-04-10T06:23:47.974Z,2.65
2019-04-10T06:26:17.477Z,3.27
2019-04-10T06:28:46.692Z,2.83
2019-04-10T06:31:16.583Z,2.40
2019-04-10T06:33:46.414Z,3.05
2019-04-10T06:36:15.396Z,2.65
2019-04-10T06:38:45.337Z,2.92
2019-04-10T06:41:16.192Z,3.37
2019-04-10T06:43:45.475Z,3.27
2019-04-10T06:46:14.604Z,2.95
2019-04-10T06:48:44.540Z,2.70
2019-04-10T06:51:13.755Z,3.00
2019-04-10T06:53:42.772Z,3.05
2019-04-10T06:56:11.746Z,2.92
2019-04-10T06:58:41.062Z,4.25
2019-04-10T07:01:10.550Z,2.75
2019-04-10T07:03:53.785Z,3.75
2019-04-10T07:06:17.633Z,2.72
2019-04-10T07:08:46.370Z,3.35
2019-04-10T07:11:13.539Z,3.15
2019-04-10T07:13:43.009Z,3.60
2019-04-10T07:16:12.735Z,3.42
2019-04-10T07:18:45.883Z,2.83
2019-04-10T07:21:12.752Z,2.55
2019-04-10T07:23:42.735Z,3.10
2019-04-10T07:26:14.497Z,3.27
2019-04-10T07:28:44.921Z,3.22
2019-04-10T07:31:13.212Z,3.12
2019-04-10T07:33:42.589Z,3.58
2019-04-10T07:36:13.943Z,3.37
2019-04-10T07:38:43.340Z,3.20
2019-04-10T07:41:18.305Z,3.58
2019-04-10T07:43:43.112Z,3.40
2019-04-10T07:46:13.105Z,3.50
2019-04-10T07:48:43.536Z,3.62
2019-04-10T07:51:13.465Z,3.20
2019-04-10T07:53:43.489Z,3.62
2019-04-10T07:56:16.229Z,3.20
2019-04-10T07:58:43.982Z,3.10
2019-04-10T08:01:14.046Z,2.70
2019-04-10T08:03:43.841Z,2.67
2019-04-10T08:06:13.289Z,3.17
2019-04-10T08:08:44.718Z,3.30
2019-04-10T08:11:13.795Z,3.42
2019-04-10T08:13:42.878Z,3.67
2019-04-10T08:16:11.674Z,3.17
2019-04-10T08:18:40.672Z,3.80
2019-04-10T08:21:11.296Z,3.60
2019-04-10T08:23:40.396Z,3.42
2019-04-10T08:26:09.279Z,3.92
2019-04-10T08:28:38.162Z,3.75
2019-04-10T08:31:07.055Z,3.35
2019-04-10T08:33:36.678Z,3.42
2019-04-10T08:36:07.342Z,3.87
2019-04-10T08:38:37.930Z,3.50
2019-04-10T08:41:07.253Z,3.75
2019-04-10T08:43:37.449Z,3.27
2019-04-10T08:46:06.772Z,3.37
2019-04-10T08:48:35.636Z,3.02
2019-04-10T08:51:04.936Z,3.62
2019-04-10T08:53:34.168Z,3.25
2019-04-10T08:56:04.423Z,3.08
2019-04-10T08:58:34.907Z,3.50
2019-04-10T09:01:05.013Z,3.00
2019-04-10T09:03:35.037Z,3.50
2019-04-10T09:06:04.557Z,3.52
2019-04-10T09:08:33.532Z,3.25
2019-04-10T09:11:02.938Z,3.72
2019-04-10T09:13:32.684Z,3.77
2019-04-10T09:16:02.538Z,3.40
2019-04-10T09:18:31.652Z,3.02
2019-04-10T09:21:01.044Z,3.20
2019-04-10T09:23:37.881Z,3.00
2019-04-10T09:26:01.721Z,3.70
2019-04-10T09:28:31.193Z,3.02
2019-04-10T09:31:00.312Z,3.87
2019-04-10T09:33:31.225Z,3.58
2019-04-10T09:36:00.626Z,3.22
2019-04-10T09:38:30.622Z,3.87
2019-04-10T09:40:59.872Z,3.67
2019-04-10T09:43:29.628Z,4.20
2019-04-10T09:45:58.772Z,4.10
2019-04-10T09:48:27.956Z,3.60
2019-04-10T09:50:58.122Z,3.40
2019-04-10T09:53:27.284Z,2.50
2019-04-10T09:55:56.772Z,3.80
2019-04-10T09:58:26.223Z,3.33
2019-04-10T10:00:56.395Z,3.37
2019-04-10T10:03:26.289Z,4.25
2019-04-10T10:05:55.751Z,3.47
2019-04-10T10:08:24.949Z,3.47
2019-04-10T10:10:53.818Z,3.22
2019-04-10T10:13:23.549Z,3.60
2019-04-10T10:15:52.513Z,4.15
2019-04-10T10:18:21.512Z,3.72
2019-04-10T10:20:50.723Z,4.22
2019-04-10T10:23:19.972Z,3.60
2019-04-10T10:25:49.332Z,4.20
2019-04-10T10:28:18.784Z,4.45
2019-04-10T10:30:48.015Z,4.08
2019-04-10T10:33:17.445Z,4.20
2019-04-10T10:35:47.419Z,4.12
2019-04-10T10:38:16.533Z,3.75
2019-04-10T10:40:45.875Z,3.75
2019-04-10T10:43:16.189Z,3.50
2019-04-10T10:45:45.337Z,3.87
2019-04-10T10:48:14.228Z,4.42
2019-04-10T10:50:43.645Z,3.70
2019-04-10T10:53:12.752Z,4.28
2019-04-10T10:55:42.049Z,4.00
2019-04-10T10:58:11.328Z,4.67
2019-04-10T11:00:41.091Z,3.92
2019-04-10T11:03:10.254Z,4.20
2019-04-10T11:05:39.452Z,3.62
2019-04-10T11:08:08.431Z,4.00
2019-04-10T11:10:37.549Z,4.22
2019-04-10T11:13:06.949Z,3.90
2019-04-10T11:15:39.058Z,3.75
2019-04-10T11:18:06.685Z,4.12
2019-04-10T11:23:07.718Z,4.05
2019-04-10T11:25:37.729Z,3.45
2019-04-10T11:28:07.681Z,3.27
2019-04-10T11:30:37.215Z,3.87
2019-04-10T11:33:06.468Z,3.55
2019-04-10T11:35:35.438Z,3.83
2019-04-10T11:38:05.729Z,3.45
2019-04-10T11:40:35.042Z,3.60
2019-04-10T11:43:05.347Z,3.17
2019-04-10T11:45:41.358Z,3.70
2019-04-10T11:48:06.050Z,3.52
2019-04-10T11:50:38.081Z,3.87
2019-04-10T11:53:06.966Z,3.70
2019-04-10T11:55:43.875Z,3.35
2019-04-10T11:58:08.072Z,3.80
2019-04-10T12:00:47.756Z,3.90
2019-04-10T12:03:12.750Z,2.85
2019-04-10T12:05:42.426Z,3.80
2019-04-10T12:13:15.238Z,3.00
2019-04-10T12:15:44.887Z,3.42
2019-04-10T12:18:14.158Z,3.42
2019-04-10T12:20:43.327Z,3.45
2019-04-10T12:23:12.657Z,3.62
2019-04-10T12:25:42.894Z,3.77
2019-04-10T12:28:12.295Z,3.62
2019-04-10T12:30:41.703Z,3.42
2019-04-10T12:33:11.729Z,4.15
2019-04-10T12:35:42.297Z,3.60
2019-04-10T12:38:13.247Z,3.60
2019-04-10T12:40:42.651Z,3.10
2019-04-10T12:43:12.669Z,4.03
2019-04-10T12:45:41.979Z,3.47
2019-04-10T12:48:11.095Z,3.52
2019-04-10T12:50:41.291Z,3.67
2019-04-10T12:53:12.020Z,3.35
2019-04-10T12:55:41.773Z,3.42
2019-04-10T12:58:16.193Z,3.50
2019-04-10T13:00:42.905Z,4.05
2019-04-10T13:03:12.200Z,4.05
2019-04-10T13:05:41.379Z,3.72
2019-04-10T13:08:19.065Z,3.95
2019-04-10T13:10:41.208Z,3.50
2019-04-10T13:13:11.478Z,2.95
2019-04-10T13:15:41.059Z,3.70
2019-04-10T13:18:10.328Z,3.37
2019-04-10T13:20:39.935Z,3.15
2019-04-10T13:23:09.338Z,3.05
2019-04-10T13:25:38.620Z,3.58
2019-04-10T13:28:08.727Z,3.05
2019-04-10T13:30:46.512Z,3.50
2019-04-10T13:33:09.377Z,3.37
2019-04-10T13:35:38.409Z,3.05
2019-04-10T13:38:07.394Z,3.10
2019-04-10T13:40:37.431Z,3.35
2019-04-10T13:43:06.658Z,3.30
2019-04-10T13:45:36.121Z,3.30
2019-04-10T13:48:08.085Z,3.00
2019-04-10T13:50:36.886Z,3.08
2019-04-10T13:53:06.316Z,2.87
2019-04-10T13:55:35.318Z,2.87
2019-04-10T13:58:04.450Z,3.05
2019-04-10T14:00:41.291Z,2.85
2019-04-10T14:03:10.771Z,2.95
2019-04-10T14:05:41.056Z,3.12
2019-04-10T14:08:10.472Z,3.17
2019-04-10T14:10:41.346Z,3.10
2019-04-10T14:13:11.482Z,2.80
2019-04-10T14:15:42.140Z,3.12
2019-04-10T14:18:12.301Z,2.87
2019-04-10T14:20:41.714Z,3.42
2019-04-10T14:23:15.782Z,3.60
2019-04-10T14:25:56.000Z,3.10
2019-04-10T14:28:27.163Z,2.72
2019-04-10T14:30:58.168Z,2.80
2019-04-10T14:33:28.230Z,3.37
2019-04-10T14:35:57.832Z,2.95
2019-04-10T14:38:27.358Z,3.05
2019-04-10T14:40:57.744Z,2.67
2019-04-10T14:43:26.976Z,3.62
2019-04-10T14:45:56.194Z,3.30
2019-04-10T14:48:25.300Z,3.10
2019-04-10T14:50:54.733Z,3.17
2019-04-10T14:53:24.840Z,2.75
2019-04-10T14:55:56.277Z,3.05
2019-04-10T14:58:28.178Z,2.80
2019-04-10T15:00:56.219Z,2.75
2019-04-10T15:03:25.217Z,3.00
2019-04-10T15:05:56.020Z,3.00
2019-04-10T15:08:25.956Z,2.65
2019-04-10T15:10:55.142Z,2.45
2019-04-10T15:13:24.729Z,2.60
2019-04-10T15:15:54.886Z,2.35
2019-04-10T15:18:24.215Z,2.58
2019-04-10T15:20:56.453Z,3.00
2019-04-10T15:23:25.782Z,2.60
2019-04-10T15:25:55.478Z,2.62
2019-04-10T15:28:25.358Z,2.62
2019-04-10T15:30:55.055Z,2.70
2019-04-10T15:33:24.679Z,2.83
2019-04-10T15:35:55.364Z,2.80
2019-04-10T15:38:24.632Z,2.62
2019-04-10T15:40:54.594Z,2.58
2019-04-10T15:43:25.357Z,2.30
2019-04-10T15:45:54.760Z,2.22
2019-04-10T15:48:25.015Z,2.45
2019-04-10T15:50:55.901Z,2.60
2019-04-10T15:53:26.386Z,2.90
2019-04-10T15:55:55.987Z,2.27
2019-04-10T15:58:25.666Z,2.67
2019-04-10T16:00:57.200Z,2.40
2019-04-10T16:03:26.420Z,2.70
2019-04-10T16:05:55.776Z,2.90
2019-04-10T16:08:26.114Z,3.08
2019-04-10T16:10:57.255Z,2.35
2019-04-10T16:13:28.454Z,2.35
2019-04-10T16:15:59.060Z,2.10
2019-04-10T16:18:30.538Z,2.55
2019-04-10T16:21:02.155Z,2.30
2019-04-10T16:23:42.474Z,2.15
2019-04-10T16:26:14.634Z,2.20
2019-04-10T16:28:47.271Z,2.00
2019-04-10T16:31:17.329Z,2.15
2019-04-10T16:33:48.374Z,2.02
2019-04-10T16:36:17.545Z,2.00
2019-04-10T16:38:47.060Z,1.80
2019-04-10T16:41:17.288Z,2.10
2019-04-10T16:43:46.683Z,1.80
2019-04-10T16:46:15.892Z,1.80
2019-04-10T16:48:46.259Z,2.20
2019-04-10T16:51:17.088Z,1.80
2019-04-10T16:53:46.217Z,1.87
2019-04-10T16:56:15.695Z,2.15
2019-04-10T16:58:44.926Z,2.40
2019-04-10T17:01:14.668Z,1.90
2019-04-10T17:03:44.216Z,2.05
2019-04-10T17:06:14.227Z,2.33
2019-04-10T17:08:45.752Z,1.90
2019-04-10T17:11:15.006Z,1.72
2019-04-10T17:13:59.318Z,2.40
2019-04-10T17:16:29.313Z,2.00
2019-04-10T17:18:59.280Z,2.50
2019-04-10T17:21:30.643Z,2.20
2019-04-10T17:23:58.907Z,2.00
2019-04-10T17:26:27.911Z,2.12
2019-04-10T17:28:57.207Z,2.12
2019-04-10T17:31:26.646Z,2.10
2019-04-10T17:33:56.645Z,2.67
2019-04-10T17:36:27.108Z,2.30
2019-04-10T17:38:56.352Z,2.33
2019-04-10T17:41:27.971Z,2.45
2019-04-10T17:43:58.240Z,2.33
2019-04-10T17:46:27.933Z,2.70
2019-04-10T17:48:57.311Z,2.17
2019-04-10T17:51:26.418Z,2.40
2019-04-10T17:53:55.880Z,2.52
2019-04-10T17:56:26.315Z,2.47
2019-04-10T17:58:56.062Z,2.52
2019-04-10T18:01:27.164Z,2.12
2019-04-10T18:03:59.833Z,2.10
2019-04-10T18:06:27.670Z,2.02
2019-04-10T18:08:57.055Z,2.30
2019-04-10T18:11:26.244Z,2.08
2019-04-10T18:13:55.590Z,2.00
2019-04-10T18:16:25.584Z,2.22
2019-04-10T18:18:55.904Z,2.02
2019-04-10T18:21:25.066Z,2.20
2019-04-10T18:23:54.091Z,1.90
2019-04-10T18:26:23.667Z,2.20
2019-04-10T18:28:54.048Z,2.05
2019-04-10T18:31:25.169Z,2.20
2019-04-10T18:33:55.083Z,2.17
2019-04-10T18:36:24.410Z,2.17
2019-04-10T18:38:54.214Z,2.30
2019-04-10T18:41:24.208Z,2.20
2019-04-10T18:43:53.514Z,2.15
2019-04-10T18:46:23.843Z,2.05
2019-04-10T18:48:53.263Z,1.82
2019-04-10T18:51:23.486Z,2.10
2019-04-10T18:53:53.891Z,2.47
2019-04-10T18:56:23.016Z,2.37
2019-04-10T18:58:56.641Z,2.08
2019-04-10T19:01:33.142Z,2.60
2019-04-10T19:04:07.716Z,2.70
2019-04-10T19:06:38.583Z,2.05
2019-04-10T19:09:17.151Z,2.10
2019-04-10T19:11:40.148Z,1.90
2019-04-10T19:14:09.391Z,2.02
2019-04-10T19:16:38.900Z,2.15
2019-04-10T19:19:08.308Z,2.22
2019-04-10T19:21:37.701Z,2.45
2019-04-10T19:24:08.023Z,2.12
2019-04-10T19:26:37.759Z,2.72
2019-04-10T19:29:07.514Z,2.30
2019-04-10T19:31:40.319Z,2.42
2019-04-10T19:34:09.507Z,2.45
2019-04-10T19:36:39.671Z,2.30
2019-04-10T19:39:09.790Z,2.10
2019-04-10T19:41:41.277Z,2.42
2019-04-10T19:44:10.632Z,2.70
2019-04-10T19:46:40.004Z,2.47
2019-04-10T19:49:10.084Z,2.25
2019-04-10T19:51:40.577Z,2.72
2019-04-10T19:54:10.874Z,2.30
2019-04-10T19:56:40.493Z,2.25
2019-04-10T19:59:10.427Z,2.10
2019-04-10T20:01:39.692Z,2.33
2019-04-10T20:04:08.993Z,2.17
2019-04-10T20:06:38.544Z,2.15
2019-04-10T20:09:09.022Z,2.05
2019-04-10T20:11:44.462Z,2.20
2019-04-10T20:14:08.643Z,2.17
2019-04-10T20:16:37.656Z,2.33
2019-04-10T20:19:07.559Z,2.00
2019-04-10T20:21:37.224Z,2.52
2019-04-10T20:24:06.357Z,2.33
2019-04-10T20:26:35.365Z,2.17
2019-04-10T20:29:04.635Z,2.10
2019-04-10T20:31:35.307Z,2.42
2019-04-10T20:34:05.433Z,2.08
2019-04-10T20:36:35.295Z,2.37
2019-04-10T20:39:07.607Z,2.12
2019-04-10T20:41:47.609Z,2.47
2019-04-10T20:44:07.620Z,2.17
2019-04-10T20:46:36.511Z,2.10
2019-04-10T20:49:08.167Z,1.95
2019-04-10T20:51:37.643Z,1.65
2019-04-10T20:54:06.666Z,2.30
2019-04-10T20:56:36.824Z,2.60
2019-04-10T20:59:05.982Z,1.90
2019-04-10T21:01:35.117Z,2.30
2019-04-10T21:04:05.272Z,2.05
2019-04-10T21:06:34.296Z,2.42
2019-04-10T21:09:05.352Z,2.35
2019-04-10T21:11:35.612Z,2.20
2019-04-10T21:14:05.310Z,2.30
2019-04-10T21:16:34.385Z,2.60
2019-04-10T21:19:04.466Z,2.77
2019-04-10T21:21:34.852Z,2.52
2019-04-10T21:24:04.875Z,2.50
2019-04-10T21:26:34.653Z,2.62
2019-04-10T21:29:06.475Z,2.35
2019-04-10T21:31:50.408Z,2.17
2019-04-10T21:34:24.153Z,2.37
2019-04-10T21:36:53.377Z,2.90
2019-04-10T21:39:22.643Z,2.83
2019-04-10T21:41:51.752Z,2.45
2019-04-10T21:44:20.751Z,2.50
2019-04-10T21:46:49.924Z,2.62
2019-04-10T21:49:19.831Z,2.50
2019-04-10T21:51:49.497Z,2.70
2019-04-10T21:54:18.642Z,2.50
2019-04-10T21:56:47.642Z,3.02
2019-04-10T21:59:16.772Z,2.50
2019-04-10T22:01:46.662Z,2.22
2019-04-10T22:04:16.752Z,3.02
2019-04-10T22:06:47.607Z,3.00
2019-04-10T22:09:28.472Z,3.00
2019-04-10T22:11:59.402Z,3.25
2019-04-10T22:14:28.620Z,2.90
2019-04-10T22:16:58.192Z,3.45
2019-04-10T22:19:28.341Z,2.75
2019-04-10T22:21:57.896Z,2.55
2019-04-10T22:24:27.251Z,3.08
2019-04-10T22:26:56.028Z,2.50
2019-04-10T22:29:25.943Z,2.92
2019-04-10T22:31:55.252Z,3.25
2019-04-10T22:34:25.445Z,2.47
2019-04-10T22:36:55.533Z,2.80
2019-04-10T22:39:25.357Z,2.70
2019-04-10T22:41:54.760Z,2.90
2019-04-10T22:44:34.744Z,2.45
2019-04-10T22:46:54.644Z,3.00
2019-04-10T22:49:23.411Z,3.00
2019-04-10T22:51:52.412Z,3.10
2019-04-10T22:54:22.022Z,3.37
2019-04-10T22:56:51.528Z,3.08
2019-04-10T22:59:20.625Z,3.08
2019-04-10T23:02:01.261Z,2.45
2019-04-10T23:04:20.222Z,2.92
2019-04-10T23:06:49.386Z,2.98
2019-04-10T23:09:18.857Z,2.52
2019-04-10T23:11:47.747Z,2.80
2019-04-10T23:14:17.154Z,2.70
2019-04-10T23:16:46.367Z,2.58
2019-04-10T23:19:16.099Z,2.52
2019-04-10T23:21:45.360Z,2.60
2019-04-10T23:24:15.691Z,3.05
2019-04-10T23:26:45.026Z,2.80
2019-04-10T23:29:14.002Z,3.10
2019-04-10T23:31:43.269Z,2.77
2019-04-10T23:34:12.552Z,2.95
2019-04-10T23:36:42.401Z,2.80
2019-04-10T23:39:12.266Z,2.62
2019-04-10T23:41:42.079Z,2.77
2019-04-10T23:44:13.040Z,2.80
2019-04-10T23:46:43.297Z,2.22
2019-04-10T23:49:13.029Z,3.10
2019-04-10T23:51:43.225Z,2.90
2019-04-10T23:54:13.170Z,3.08
2019-04-10T23:56:42.203Z,2.92
2019-04-10T23:59:11.192Z,3.42
